createdAt,value
2022-10-18T00:00:18.659Z,14.63
2022-10-18T00:03:21.894Z,17.75
2022-10-18T00:06:24.351Z,13.13
2022-10-18T00:09:29.951Z,12.10
2022-10-18T00:12:36.677Z,16.20
2022-10-18T00:15:39.583Z,8.57
2022-10-18T00:18:45.530Z,10.30
2022-10-18T00:21:50.572Z,10.88
2022-10-18T00:24:53.059Z,13.27
2022-10-18T00:27:55.759Z,12.73
2022-10-18T00:30:58.290Z,11.90
2022-10-18T00:34:04.364Z,13.35
2022-10-18T00:37:07.134Z,14.27
2022-10-18T00:40:10.495Z,12.80
2022-10-18T00:43:16.061Z,10.05
2022-10-18T00:46:18.805Z,13.07
2022-10-18T00:49:35.625Z,14.30
2022-10-18T00:52:46.954Z,13.45
2022-10-18T00:55:49.690Z,13.52
2022-10-18T00:58:52.665Z,14.80
2022-10-18T01:01:57.178Z,11.75
2022-10-18T01:04:59.940Z,11.43
2022-10-18T01:08:31.703Z,12.18
2022-10-18T01:11:58.364Z,11.43
2022-10-18T01:15:11.710Z,8.88
2022-10-18T01:18:23.801Z,16.80
2022-10-18T01:21:42.764Z,12.27
2022-10-18T01:25:10.464Z,11.57
2022-10-18T01:28:39.395Z,10.88
2022-10-18T01:31:56.368Z,13.57
2022-10-18T01:35:05.028Z,10.40
2022-10-18T01:38:14.109Z,10.30
2022-10-18T01:41:19.167Z,16.60
2022-10-18T01:44:25.803Z,12.70
2022-10-18T01:47:28.921Z,9.73
2022-10-18T01:50:34.316Z,10.95
2022-10-18T01:53:36.790Z,10.80
2022-10-18T01:56:54.691Z,10.20
2022-10-18T02:00:15.261Z,9.30
2022-10-18T02:03:22.879Z,12.63
2022-10-18T02:06:35.688Z,10.40
2022-10-18T02:10:08.523Z,9.70
2022-10-18T02:13:16.152Z,11.40
2022-10-18T02:16:41.889Z,9.97
2022-10-18T02:19:49.603Z,9.63
2022-10-18T02:22:55.865Z,6.75
2022-10-18T02:25:58.492Z,16.02
2022-10-18T02:29:01.650Z,9.98
2022-10-18T02:32:17.483Z,8.55
2022-10-18T02:35:23.564Z,9.27
2022-10-18T02:38:27.563Z,6.53
2022-10-18T02:41:31.669Z,11.50
2022-10-18T02:44:35.210Z,8.52
2022-10-18T02:47:37.867Z,9.50
2022-10-18T02:50:40.820Z,9.80
2022-10-18T02:53:43.613Z,10.50
2022-10-18T02:56:46.015Z,9.40
2022-10-18T02:59:48.744Z,8.93
2022-10-18T03:02:52.895Z,10.48
2022-10-18T03:05:55.568Z,8.57
2022-10-18T03:08:58.216Z,9.98
2022-10-18T03:12:01.043Z,11.12
2022-10-18T03:15:03.743Z,8.77
2022-10-18T03:18:06.439Z,9.35
2022-10-18T03:21:09.087Z,7.75
2022-10-18T03:24:11.764Z,7.07
2022-10-18T03:27:14.206Z,6.55
2022-10-18T03:30:18.487Z,8.60
2022-10-18T03:33:20.940Z,7.03
2022-10-18T03:36:24.259Z,9.90
2022-10-18T03:39:26.824Z,8.02
2022-10-18T03:42:29.974Z,7.87
2022-10-18T03:45:32.716Z,9.88
2022-10-18T03:48:35.490Z,9.52
2022-10-18T03:51:38.145Z,9.48
2022-10-18T03:54:40.888Z,9.27
2022-10-18T03:57:43.260Z,10.73
2022-10-18T04:00:48.756Z,8.00
2022-10-18T04:03:51.416Z,7.45
2022-10-18T04:06:53.888Z,11.23
2022-10-18T04:09:56.608Z,6.50
2022-10-18T04:12:59.270Z,7.68
2022-10-18T04:16:02.107Z,8.52
2022-10-18T04:19:05.066Z,7.03
2022-10-18T04:22:09.100Z,9.85
2022-10-18T04:25:11.542Z,7.93
2022-10-18T04:28:14.436Z,7.90
2022-10-18T04:31:16.973Z,6.80
2022-10-18T04:34:19.599Z,8.85
2022-10-18T04:37:22.076Z,9.23
2022-10-18T04:40:24.916Z,9.20
2022-10-18T04:43:27.304Z,6.47
2022-10-18T04:46:30.110Z,7.43
2022-10-18T04:49:32.855Z,10.10
2022-10-18T04:52:35.578Z,12.43
2022-10-18T04:55:38.006Z,8.77
2022-10-18T04:58:40.791Z,8.95
2022-10-18T05:01:43.481Z,11.75
2022-10-18T05:04:46.221Z,10.65
2022-10-18T05:07:48.691Z,7.28
2022-10-18T05:10:52.157Z,9.13
2022-10-18T05:13:54.602Z,11.43
2022-10-18T05:16:57.325Z,6.35
2022-10-18T05:19:59.872Z,12.05
2022-10-18T05:23:02.706Z,19.33
2022-10-18T05:26:06.909Z,8.50
2022-10-18T05:29:09.699Z,8.85
2022-10-18T05:32:12.315Z,13.85
2022-10-18T05:35:15.040Z,10.35
2022-10-18T05:38:17.487Z,7.95
2022-10-18T05:41:20.267Z,11.23
2022-10-18T05:44:22.668Z,10.27
2022-10-18T05:47:25.481Z,14.73
2022-10-18T05:50:28.302Z,8.60
2022-10-18T05:53:36.663Z,11.43
2022-10-18T05:56:40.624Z,11.30
2022-10-18T05:59:44.405Z,9.27
2022-10-18T06:02:46.950Z,9.15
2022-10-18T06:05:49.611Z,10.43
2022-10-18T06:08:52.148Z,8.85
2022-10-18T06:11:55.447Z,8.00
2022-10-18T06:14:57.865Z,13.40
2022-10-18T06:18:00.763Z,10.68
2022-10-18T06:21:03.657Z,10.07
2022-10-18T06:24:06.665Z,10.75
2022-10-18T06:27:09.542Z,14.07
2022-10-18T06:30:12.375Z,12.23
2022-10-18T06:33:14.796Z,12.82
2022-10-18T06:36:21.971Z,12.13
2022-10-18T06:39:24.928Z,10.85
2022-10-18T06:42:28.479Z,9.75
2022-10-18T06:45:30.863Z,16.35
2022-10-18T06:48:35.658Z,13.25
2022-10-18T06:51:38.321Z,22.33
2022-10-18T06:54:41.004Z,12.07
2022-10-18T06:57:43.400Z,12.05
2022-10-18T07:00:47.007Z,12.30
2022-10-18T07:03:53.067Z,9.82
2022-10-18T07:06:56.246Z,14.18
2022-10-18T07:09:58.726Z,11.32
2022-10-18T07:13:26.940Z,12.95
2022-10-18T07:16:23.837Z,11.95
2022-10-18T07:19:26.608Z,11.20
2022-10-18T07:22:30.394Z,9.23
2022-10-18T07:25:33.234Z,12.35
2022-10-18T07:28:35.827Z,14.95
2022-10-18T07:31:39.136Z,12.82
2022-10-18T07:34:41.536Z,17.20
2022-10-18T07:37:44.348Z,13.85
2022-10-18T07:40:46.730Z,17.45
2022-10-18T07:43:51.716Z,15.05
2022-10-18T07:46:54.152Z,12.23
2022-10-18T07:49:56.823Z,14.15
2022-10-18T07:52:59.557Z,19.60
2022-10-18T07:56:09.644Z,16.87
2022-10-18T07:59:12.300Z,16.52
2022-10-18T08:02:15.043Z,16.52
2022-10-18T08:05:17.841Z,17.58
2022-10-18T08:08:22.080Z,15.80
2022-10-18T08:11:25.987Z,15.95
2022-10-18T08:14:28.430Z,16.12
2022-10-18T08:17:31.557Z,16.20
2022-10-18T08:20:36.204Z,17.02
2022-10-18T08:23:39.551Z,17.67
2022-10-18T08:26:41.937Z,15.98
2022-10-18T08:29:44.624Z,16.98
2022-10-18T08:32:46.943Z,16.95
2022-10-18T08:36:00.368Z,15.32
2022-10-18T08:39:03.275Z,15.77
2022-10-18T08:42:47.422Z,15.63
2022-10-18T08:45:53.226Z,16.85
2022-10-18T08:48:56.976Z,15.88
2022-10-18T08:51:59.482Z,16.45
2022-10-18T08:55:10.188Z,18.70
2022-10-18T08:58:26.849Z,16.00
2022-10-18T09:05:43.099Z,15.07
2022-10-18T09:09:08.839Z,15.10
2022-10-18T09:12:39.006Z,15.40
2022-10-18T09:16:01.951Z,11.35
2022-10-18T09:19:25.765Z,9.70
2022-10-18T09:22:49.903Z,8.40
2022-10-18T09:26:20.029Z,9.73
2022-10-18T09:29:53.940Z,10.25
2022-10-18T09:33:24.261Z,8.70
2022-10-18T09:36:35.456Z,8.23
2022-10-18T09:39:39.502Z,9.75
2022-10-18T09:42:53.245Z,7.65
2022-10-18T09:45:56.832Z,7.80
2022-10-18T09:49:23.359Z,8.23
2022-10-18T09:52:34.645Z,9.18
2022-10-18T09:55:58.622Z,7.05
2022-10-18T09:59:01.179Z,6.87
2022-10-18T10:02:05.127Z,6.03
2022-10-18T10:05:13.085Z,9.57
2022-10-18T10:08:15.607Z,6.22
2022-10-18T10:11:37.968Z,8.88
2022-10-18T10:14:44.318Z,7.82
2022-10-18T10:18:01.334Z,7.87
2022-10-18T10:21:07.355Z,7.70
2022-10-18T10:24:27.414Z,7.00
2022-10-18T10:27:34.983Z,5.47
2022-10-18T10:30:38.752Z,6.97
2022-10-18T10:33:46.897Z,5.00
2022-10-18T10:36:54.758Z,6.00
2022-10-18T10:40:22.116Z,6.07
2022-10-18T10:43:37.708Z,5.28
2022-10-18T10:46:41.536Z,6.78
2022-10-18T10:49:47.566Z,5.07
2022-10-18T10:52:50.251Z,5.25
2022-10-18T10:55:54.859Z,5.12
2022-10-18T10:59:07.676Z,8.70
2022-10-18T11:02:20.655Z,5.95
2022-10-18T11:05:29.439Z,4.82
2022-10-18T11:08:38.931Z,5.05
2022-10-18T11:11:49.919Z,6.28
2022-10-18T11:15:32.628Z,5.43
2022-10-18T11:18:37.855Z,6.80
2022-10-18T11:21:41.645Z,4.60
2022-10-18T11:24:44.288Z,4.93
2022-10-18T11:28:12.750Z,5.72
2022-10-18T11:31:30.228Z,4.60
2022-10-18T11:34:58.565Z,4.95
2022-10-18T11:41:31.358Z,5.37
2022-10-18T11:44:58.267Z,5.82
2022-10-18T11:48:25.716Z,4.82
2022-10-18T11:51:33.989Z,5.77
2022-10-18T11:54:47.420Z,5.70
2022-10-18T11:58:12.243Z,4.65
2022-10-18T12:01:37.871Z,4.57
2022-10-18T12:04:59.812Z,4.87
2022-10-18T12:08:32.883Z,4.78
2022-10-18T12:11:55.841Z,5.53
2022-10-18T12:15:19.740Z,4.87
2022-10-18T12:18:26.224Z,4.62
2022-10-18T12:21:32.636Z,6.25
2022-10-18T12:24:36.005Z,4.45
2022-10-18T12:27:53.366Z,5.12
2022-10-18T12:31:26.735Z,4.97
2022-10-18T12:34:43.489Z,6.45
2022-10-18T12:38:30.798Z,4.70
2022-10-18T12:41:35.734Z,6.00
2022-10-18T12:44:38.589Z,4.22
2022-10-18T12:47:41.210Z,4.75
2022-10-18T12:50:45.309Z,5.05
2022-10-18T12:53:54.745Z,4.28
2022-10-18T12:56:59.739Z,5.12
2022-10-18T13:00:03.854Z,4.03
2022-10-18T13:03:10.135Z,4.20
2022-10-18T13:06:12.583Z,4.50
2022-10-18T13:09:21.177Z,4.20
2022-10-18T13:12:23.565Z,4.93
2022-10-18T13:15:45.017Z,4.28
2022-10-18T13:18:52.466Z,3.70
2022-10-18T13:22:19.441Z,4.03
2022-10-18T13:25:29.373Z,3.90
2022-10-18T13:28:52.364Z,2.97
2022-10-18T13:32:03.824Z,5.57
2022-10-18T13:35:44.732Z,4.57
2022-10-18T13:38:50.393Z,3.40
2022-10-18T13:41:57.733Z,3.62
2022-10-18T13:45:31.553Z,4.00
2022-10-18T13:48:34.143Z,6.18
2022-10-18T13:51:48.740Z,3.40
2022-10-18T13:54:57.652Z,5.85
2022-10-18T13:58:11.291Z,4.53
2022-10-18T14:01:26.172Z,4.55
2022-10-18T14:05:23.873Z,3.50
2022-10-18T14:08:49.169Z,3.75
2022-10-18T14:11:55.287Z,4.35
2022-10-18T14:15:25.837Z,3.60
2022-10-18T14:18:33.352Z,4.30
2022-10-18T14:21:41.554Z,3.33
2022-10-18T14:24:48.509Z,4.12
2022-10-18T14:28:08.876Z,3.80
2022-10-18T14:31:16.158Z,4.60
2022-10-18T14:34:18.964Z,5.85
2022-10-18T14:37:35.572Z,4.35
2022-10-18T14:40:40.514Z,4.50
2022-10-18T14:43:44.463Z,5.15
2022-10-18T14:46:59.203Z,3.58
2022-10-18T14:50:02.214Z,3.78
2022-10-18T14:53:13.784Z,4.18
2022-10-18T14:56:26.540Z,3.25
2022-10-18T14:59:43.695Z,3.50
2022-10-18T15:02:46.544Z,4.30
2022-10-18T15:05:53.915Z,5.03
2022-10-18T15:08:58.936Z,5.40
2022-10-18T15:12:05.547Z,5.20
2022-10-18T15:15:19.552Z,5.00
2022-10-18T15:18:25.266Z,4.00
2022-10-18T15:21:28.780Z,5.20
2022-10-18T15:24:41.403Z,4.80
2022-10-18T15:27:47.758Z,4.40
2022-10-18T15:30:50.399Z,6.80
2022-10-18T15:34:07.651Z,6.32
2022-10-18T15:37:27.095Z,8.13
2022-10-18T15:40:35.046Z,5.82
2022-10-18T15:43:37.627Z,4.82
2022-10-18T15:46:40.360Z,4.22
2022-10-18T15:49:46.283Z,4.32
2022-10-18T15:52:49.083Z,4.40
2022-10-18T15:55:57.689Z,5.37
2022-10-18T15:59:04.100Z,4.90
2022-10-18T16:02:14.196Z,6.00
2022-10-18T16:05:17.006Z,5.82
2022-10-18T16:08:25.297Z,5.78
2022-10-18T16:11:28.602Z,7.43
2022-10-18T16:14:32.018Z,6.55
2022-10-18T16:17:35.244Z,6.20
2022-10-18T16:20:37.997Z,7.28
2022-10-18T16:23:40.702Z,4.95
2022-10-18T16:26:43.227Z,5.57
2022-10-18T16:29:46.471Z,6.05
2022-10-18T16:32:49.097Z,6.28
2022-10-18T16:35:52.841Z,6.32
2022-10-18T16:38:56.624Z,7.53
2022-10-18T16:41:59.372Z,4.95
2022-10-18T16:45:01.959Z,6.85
2022-10-18T16:48:05.197Z,6.55
2022-10-18T16:51:12.500Z,6.90
2022-10-18T16:54:15.266Z,6.37
2022-10-18T16:57:17.796Z,7.22
2022-10-18T17:00:23.044Z,5.50
2022-10-18T17:03:26.234Z,6.40
2022-10-18T17:06:32.356Z,8.25
2022-10-18T17:09:36.892Z,6.28
2022-10-18T17:12:39.983Z,5.53
2022-10-18T17:15:42.550Z,5.18
2022-10-18T17:18:45.302Z,5.55
2022-10-18T17:21:47.992Z,5.95
2022-10-18T17:24:50.749Z,6.95
2022-10-18T17:27:53.143Z,9.73
2022-10-18T17:30:59.110Z,5.62
2022-10-18T17:34:02.268Z,7.07
2022-10-18T17:37:06.130Z,7.35
2022-10-18T17:40:09.341Z,8.00
2022-10-18T17:43:13.674Z,9.10
2022-10-18T17:46:17.909Z,7.20
2022-10-18T17:49:22.080Z,8.63
2022-10-18T17:52:24.511Z,6.53
2022-10-18T17:55:27.737Z,7.30
2022-10-18T17:58:30.920Z,9.52
2022-10-18T18:01:33.919Z,6.10
2022-10-18T18:04:36.622Z,6.12
2022-10-18T18:07:39.022Z,8.55
2022-10-18T18:10:41.905Z,9.45
2022-10-18T18:13:44.540Z,5.93
2022-10-18T18:16:48.213Z,6.75
2022-10-18T18:19:50.610Z,6.28
2022-10-18T18:22:53.511Z,8.95
2022-10-18T18:25:59.088Z,11.98
2022-10-18T18:32:07.956Z,9.95
2022-10-18T18:35:10.620Z,7.20
2022-10-18T18:38:13.141Z,9.07
2022-10-18T18:41:18.900Z,10.65
2022-10-18T18:44:22.051Z,10.48
2022-10-18T18:47:24.758Z,6.90
2022-10-18T18:50:28.221Z,14.35
2022-10-18T18:53:31.750Z,8.63
2022-10-18T18:56:34.474Z,9.98
2022-10-18T18:59:37.225Z,12.10
2022-10-18T19:02:40.278Z,13.40
2022-10-18T19:05:42.993Z,9.95
2022-10-18T19:08:46.607Z,10.45
2022-10-18T19:11:52.490Z,16.35
2022-10-18T19:14:54.881Z,12.32
2022-10-18T19:17:57.710Z,12.80
2022-10-18T19:21:00.087Z,12.43
2022-10-18T19:24:04.003Z,10.98
2022-10-18T19:27:09.741Z,12.18
2022-10-18T19:30:13.073Z,10.60
2022-10-18T19:33:23.788Z,11.95
2022-10-18T19:36:34.370Z,13.85
2022-10-18T19:39:37.384Z,11.30
2022-10-18T19:42:40.046Z,13.13
2022-10-18T19:45:42.404Z,10.82
2022-10-18T19:48:45.155Z,11.43
2022-10-18T19:51:47.968Z,13.30
2022-10-18T19:54:50.758Z,12.05
2022-10-18T19:57:53.241Z,14.43
2022-10-18T20:00:58.000Z,11.52
2022-10-18T20:04:01.035Z,13.38
2022-10-18T20:07:03.585Z,20.77
2022-10-18T20:10:07.155Z,14.45
2022-10-18T20:13:09.792Z,12.40
2022-10-18T20:16:14.614Z,9.07
2022-10-18T20:19:17.114Z,11.25
2022-10-18T20:22:19.846Z,12.73
2022-10-18T20:25:22.270Z,13.93
2022-10-18T20:28:26.009Z,15.10
2022-10-18T20:31:30.482Z,13.02
2022-10-18T20:34:33.200Z,15.63
2022-10-18T20:37:35.961Z,21.70
2022-10-18T20:40:39.205Z,15.98
2022-10-18T20:43:42.315Z,17.05
2022-10-18T20:46:45.645Z,17.55
2022-10-18T20:49:48.989Z,12.63
2022-10-18T20:52:51.645Z,20.08
2022-10-18T20:56:06.378Z,14.35
2022-10-18T20:59:10.225Z,14.73
2022-10-18T21:02:13.359Z,14.68
2022-10-18T21:05:16.595Z,11.60
2022-10-18T21:08:19.055Z,14.25
2022-10-18T21:11:22.588Z,14.55
2022-10-18T21:14:25.116Z,12.15
2022-10-18T21:17:27.866Z,21.00
2022-10-18T21:20:30.996Z,16.60
2022-10-18T21:23:34.144Z,18.75
2022-10-18T21:26:37.140Z,13.85
2022-10-18T21:29:39.768Z,12.73
2022-10-18T21:32:42.240Z,12.43
2022-10-18T21:35:45.072Z,13.18
2022-10-18T21:38:48.067Z,10.40
2022-10-18T21:41:50.896Z,14.30
2022-10-18T21:44:53.406Z,14.07
2022-10-18T21:47:56.070Z,17.70
2022-10-18T21:51:03.369Z,13.77
2022-10-18T21:54:08.441Z,15.67
2022-10-18T21:57:10.821Z,14.75
2022-10-18T22:00:15.360Z,17.27
2022-10-18T22:03:18.059Z,20.80
2022-10-18T22:06:21.122Z,12.77
2022-10-18T22:09:23.819Z,16.62
2022-10-18T22:12:26.235Z,15.50
2022-10-18T22:15:29.002Z,15.93
2022-10-18T22:18:33.182Z,10.70
2022-10-18T22:21:36.033Z,12.50
2022-10-18T22:24:38.423Z,9.73
2022-10-18T22:27:41.215Z,12.00
2022-10-18T22:30:43.938Z,13.15
2022-10-18T22:33:47.311Z,13.88
2022-10-18T22:36:49.953Z,13.30
2022-10-18T22:39:52.724Z,12.07
2022-10-18T22:42:55.125Z,17.30
2022-10-18T22:46:01.512Z,14.20
2022-10-18T22:49:04.316Z,11.40
2022-10-18T22:52:07.051Z,15.45
2022-10-18T22:55:09.694Z,13.40
2022-10-18T22:58:12.658Z,14.63
2022-10-18T23:01:18.181Z,12.52
2022-10-18T23:04:20.869Z,13.23
2022-10-18T23:07:23.319Z,12.25
2022-10-18T23:10:30.608Z,12.88
2022-10-18T23:13:36.117Z,15.25
2022-10-18T23:16:41.455Z,11.32
2022-10-18T23:19:44.091Z,13.45
2022-10-18T23:22:47.010Z,16.67
2022-10-18T23:25:53.998Z,13.80
2022-10-18T23:28:57.369Z,13.27
2022-10-18T23:31:59.824Z,13.68
2022-10-18T23:35:02.598Z,14.95
2022-10-18T23:38:05.023Z,10.55
2022-10-18T23:41:11.696Z,12.95
2022-10-18T23:44:14.695Z,11.88
2022-10-18T23:47:20.123Z,13.48
2022-10-18T23:50:25.384Z,10.07
2022-10-18T23:53:28.578Z,11.45
2022-10-18T23:56:30.952Z,17.25
2022-10-18T23:59:33.673Z,14.70
